Northumberland, United Kingdom
Current Conditions -  °F | °C
As of 12:50 PM on Friday 19 Dec 2014 (Local Time) from EGQM Reporting Station
Clear Clear  
Wind Chill: 34°   Ceiling: Unl
Heat Index: 43°   Visibility: 6mi
Dew Point: 34°   Wind: 23mph
Humidity: 70%   Direction: 250°WSW
Pressure: 29.65"   Gusts: NA
Location:  55.3°N, 2.1°W
Report Text: EGQM 191250Z AUTO 25020KT 9999 NCD 06/01 Q1004
Loading
Personal Weather Stations






























Interactive Weather Map New forecast layout! Learn more

10-Day Weather Forecast

Advertisements
Track Severe Weather on mobile